sensor_id;sensor_type;location;lat;lon;timestamp;temperature;humidity
21627;DHT22;10975;47.872;12.972;2024-02-26T00:00:13;1.70;99.90
21627;DHT22;10975;47.872;12.972;2024-02-26T00:02:40;1.70;99.90
21627;DHT22;10975;47.872;12.972;2024-02-26T00:05:11;1.80;99.90
21627;DHT22;10975;47.872;12.972;2024-02-26T00:07:38;1.80;99.90
21627;DHT22;10975;47.872;12.972;2024-02-26T00:10:06;1.90;99.90
21627;DHT22;10975;47.872;12.972;2024-02-26T00:12:33;1.90;99.90
21627;DHT22;10975;47.872;12.972;2024-02-26T00:15:00;1.90;99.90
21627;DHT22;10975;47.872;12.972;2024-02-26T00:17:27;1.90;99.90
21627;DHT22;10975;47.872;12.972;2024-02-26T00:19:54;1.80;99.90
21627;DHT22;10975;47.872;12.972;2024-02-26T00:22:21;1.70;99.90
21627;DHT22;10975;47.872;12.972;2024-02-26T00:24:48;1.70;99.90
21627;DHT22;10975;47.872;12.972;2024-02-26T00:27:15;1.70;99.90
21627;DHT22;10975;47.872;12.972;2024-02-26T00:29:42;1.70;99.90
21627;DHT22;10975;47.872;12.972;2024-02-26T00:32:09;1.80;99.90
21627;DHT22;10975;47.872;12.972;2024-02-26T00:34:36;1.80;99.90
21627;DHT22;10975;47.872;12.972;2024-02-26T00:37:03;1.90;99.90
21627;DHT22;10975;47.872;12.972;2024-02-26T00:39:29;2.00;99.90
21627;DHT22;10975;47.872;12.972;2024-02-26T00:41:56;2.00;99.90
21627;DHT22;10975;47.872;12.972;2024-02-26T00:44:23;1.90;99.90
21627;DHT22;10975;47.872;12.972;2024-02-26T00:46:50;1.90;99.90
21627;DHT22;10975;47.872;12.972;2024-02-26T00:49:18;1.80;99.90
21627;DHT22;10975;47.872;12.972;2024-02-26T00:51:45;1.80;99.90
21627;DHT22;10975;47.872;12.972;2024-02-26T00:54:12;1.70;99.90
21627;DHT22;10975;47.872;12.972;2024-02-26T00:56:39;1.70;99.90
21627;DHT22;10975;47.872;12.972;2024-02-26T00:59:06;1.70;99.90
21627;DHT22;10975;47.872;12.972;2024-02-26T01:01:33;1.70;99.90
21627;DHT22;10975;47.872;12.972;2024-02-26T01:04:00;1.70;99.90
21627;DHT22;10975;47.872;12.972;2024-02-26T01:06:27;1.60;99.90
21627;DHT22;10975;47.872;12.972;2024-02-26T01:08:54;1.60;99.90
21627;DHT22;10975;47.872;12.972;2024-02-26T01:11:21;1.60;99.90
21627;DHT22;10975;47.872;12.972;2024-02-26T01:13:48;1.60;99.90
21627;DHT22;10975;47.872;12.972;2024-02-26T01:16:15;1.60;99.90
21627;DHT22;10975;47.872;12.972;2024-02-26T01:18:41;1.60;99.90
21627;DHT22;10975;47.872;12.972;2024-02-26T01:21:08;1.60;99.90
21627;DHT22;10975;47.872;12.972;2024-02-26T01:23:36;1.60;99.90
21627;DHT22;10975;47.872;12.972;2024-02-26T01:26:03;1.60;99.90
21627;DHT22;10975;47.872;12.972;2024-02-26T01:28:31;1.60;99.90
21627;DHT22;10975;47.872;12.972;2024-02-26T01:30:58;1.50;99.90
21627;DHT22;10975;47.872;12.972;2024-02-26T01:33:26;1.50;99.90
21627;DHT22;10975;47.872;12.972;2024-02-26T01:35:53;1.50;99.90
21627;DHT22;10975;47.872;12.972;2024-02-26T01:38:20;1.40;99.90
21627;DHT22;10975;47.872;12.972;2024-02-26T01:40:47;1.40;99.90
21627;DHT22;10975;47.872;12.972;2024-02-26T01:43:14;1.40;99.90
21627;DHT22;10975;47.872;12.972;2024-02-26T01:45:40;1.40;99.90
21627;DHT22;10975;47.872;12.972;2024-02-26T01:48:07;1.30;99.90
21627;DHT22;10975;47.872;12.972;2024-02-26T01:50:35;1.30;99.90
21627;DHT22;10975;47.872;12.972;2024-02-26T01:53:03;1.20;99.90
21627;DHT22;10975;47.872;12.972;2024-02-26T01:55:30;1.30;99.90
21627;DHT22;10975;47.872;12.972;2024-02-26T01:57:57;1.30;99.90
21627;DHT22;10975;47.872;12.972;2024-02-26T02:00:24;1.30;99.90
21627;DHT22;10975;47.872;12.972;2024-02-26T02:02:54;1.40;99.90
21627;DHT22;10975;47.872;12.972;2024-02-26T02:05:22;1.30;99.90
21627;DHT22;10975;47.872;12.972;2024-02-26T02:07:49;1.30;99.90
21627;DHT22;10975;47.872;12.972;2024-02-26T02:10:16;1.20;99.90
21627;DHT22;10975;47.872;12.972;2024-02-26T02:12:47;1.20;99.90
21627;DHT22;10975;47.872;12.972;2024-02-26T02:15:14;1.10;99.90
21627;DHT22;10975;47.872;12.972;2024-02-26T02:17:41;1.10;99.90
21627;DHT22;10975;47.872;12.972;2024-02-26T02:20:09;0.90;99.90
21627;DHT22;10975;47.872;12.972;2024-02-26T02:22:36;0.90;99.90
21627;DHT22;10975;47.872;12.972;2024-02-26T02:25:03;0.90;99.90
21627;DHT22;10975;47.872;12.972;2024-02-26T02:27:30;0.90;99.90
21627;DHT22;10975;47.872;12.972;2024-02-26T02:29:57;0.90;99.90
21627;DHT22;10975;47.872;12.972;2024-02-26T02:32:25;0.90;99.90
21627;DHT22;10975;47.872;12.972;2024-02-26T02:34:53;0.90;99.90
21627;DHT22;10975;47.872;12.972;2024-02-26T02:37:23;0.90;99.90
21627;DHT22;10975;47.872;12.972;2024-02-26T02:39:49;0.90;99.90
21627;DHT22;10975;47.872;12.972;2024-02-26T02:42:16;0.90;99.90
21627;DHT22;10975;47.872;12.972;2024-02-26T02:44:43;0.90;99.90
21627;DHT22;10975;47.872;12.972;2024-02-26T02:47:11;0.90;99.90
21627;DHT22;10975;47.872;12.972;2024-02-26T02:49:38;0.90;99.90
21627;DHT22;10975;47.872;12.972;2024-02-26T02:52:05;0.90;99.90
21627;DHT22;10975;47.872;12.972;2024-02-26T02:54:32;0.90;99.90
21627;DHT22;10975;47.872;12.972;2024-02-26T02:56:59;0.90;99.90
21627;DHT22;10975;47.872;12.972;2024-02-26T02:59:26;0.80;99.90
21627;DHT22;10975;47.872;12.972;2024-02-26T03:01:53;0.80;99.90
21627;DHT22;10975;47.872;12.972;2024-02-26T03:04:20;0.70;99.90
21627;DHT22;10975;47.872;12.972;2024-02-26T03:06:47;0.60;99.90
21627;DHT22;10975;47.872;12.972;2024-02-26T03:09:14;0.50;99.90
21627;DHT22;10975;47.872;12.972;2024-02-26T03:11:40;0.50;99.90
21627;DHT22;10975;47.872;12.972;2024-02-26T03:14:08;0.50;99.90
21627;DHT22;10975;47.872;12.972;2024-02-26T03:16:36;0.50;99.90
21627;DHT22;10975;47.872;12.972;2024-02-26T03:19:03;0.60;99.90
21627;DHT22;10975;47.872;12.972;2024-02-26T03:21:30;0.60;99.90
21627;DHT22;10975;47.872;12.972;2024-02-26T03:23:57;0.70;99.90
21627;DHT22;10975;47.872;12.972;2024-02-26T03:26:24;0.70;99.90
21627;DHT22;10975;47.872;12.972;2024-02-26T03:28:51;0.70;99.90
21627;DHT22;10975;47.872;12.972;2024-02-26T03:31:17;0.70;99.90
21627;DHT22;10975;47.872;12.972;2024-02-26T03:33:44;0.70;99.90
21627;DHT22;10975;47.872;12.972;2024-02-26T03:36:11;0.70;99.90
21627;DHT22;10975;47.872;12.972;2024-02-26T03:38:38;0.70;99.90
21627;DHT22;10975;47.872;12.972;2024-02-26T03:41:05;0.60;99.90
21627;DHT22;10975;47.872;12.972;2024-02-26T03:43:32;0.60;99.90
21627;DHT22;10975;47.872;12.972;2024-02-26T03:45:59;0.60;99.90
21627;DHT22;10975;47.872;12.972;2024-02-26T03:48:26;0.50;99.90
21627;DHT22;10975;47.872;12.972;2024-02-26T03:50:53;0.60;99.90
21627;DHT22;10975;47.872;12.972;2024-02-26T03:53:20;0.60;99.90
21627;DHT22;10975;47.872;12.972;2024-02-26T03:55:47;0.50;99.90
21627;DHT22;10975;47.872;12.972;2024-02-26T03:58:14;0.50;99.90
21627;DHT22;10975;47.872;12.972;2024-02-26T04:00:42;0.50;99.90
21627;DHT22;10975;47.872;12.972;2024-02-26T04:03:10;0.40;99.90
21627;DHT22;10975;47.872;12.972;2024-02-26T04:05:36;0.40;99.90
21627;DHT22;10975;47.872;12.972;2024-02-26T04:08:04;0.40;99.90
21627;DHT22;10975;47.872;12.972;2024-02-26T04:10:34;0.50;99.90
21627;DHT22;10975;47.872;12.972;2024-02-26T04:13:07;0.50;99.90
21627;DHT22;10975;47.872;12.972;2024-02-26T04:15:34;0.60;99.90
21627;DHT22;10975;47.872;12.972;2024-02-26T04:18:00;0.60;99.90
21627;DHT22;10975;47.872;12.972;2024-02-26T04:20:27;0.60;99.90
21627;DHT22;10975;47.872;12.972;2024-02-26T04:22:54;0.60;99.90
21627;DHT22;10975;47.872;12.972;2024-02-26T04:25:21;0.60;99.90
21627;DHT22;10975;47.872;12.972;2024-02-26T04:27:48;0.50;99.90
21627;DHT22;10975;47.872;12.972;2024-02-26T04:30:15;0.50;99.90
21627;DHT22;10975;47.872;12.972;2024-02-26T04:32:42;0.40;99.90
21627;DHT22;10975;47.872;12.972;2024-02-26T04:35:09;0.40;99.90
21627;DHT22;10975;47.872;12.972;2024-02-26T04:37:36;0.40;99.90
21627;DHT22;10975;47.872;12.972;2024-02-26T04:40:03;0.40;99.90
21627;DHT22;10975;47.872;12.972;2024-02-26T04:42:31;0.40;99.90
21627;DHT22;10975;47.872;12.972;2024-02-26T04:44:57;0.40;99.90
21627;DHT22;10975;47.872;12.972;2024-02-26T04:47:24;0.30;99.90
21627;DHT22;10975;47.872;12.972;2024-02-26T04:49:51;0.30;99.90
21627;DHT22;10975;47.872;12.972;2024-02-26T04:52:19;0.30;99.90
21627;DHT22;10975;47.872;12.972;2024-02-26T04:54:46;0.30;99.90
21627;DHT22;10975;47.872;12.972;2024-02-26T04:57:13;0.30;99.90
21627;DHT22;10975;47.872;12.972;2024-02-26T04:59:40;0.30;99.90
21627;DHT22;10975;47.872;12.972;2024-02-26T05:02:09;0.30;99.90
21627;DHT22;10975;47.872;12.972;2024-02-26T05:04:36;0.30;99.90
21627;DHT22;10975;47.872;12.972;2024-02-26T05:07:03;0.30;99.90
21627;DHT22;10975;47.872;12.972;2024-02-26T05:09:31;0.30;99.90
21627;DHT22;10975;47.872;12.972;2024-02-26T05:11:58;0.30;99.90
21627;DHT22;10975;47.872;12.972;2024-02-26T05:14:24;0.30;99.90
21627;DHT22;10975;47.872;12.972;2024-02-26T05:16:51;0.30;99.90
21627;DHT22;10975;47.872;12.972;2024-02-26T05:19:18;0.30;99.90
21627;DHT22;10975;47.872;12.972;2024-02-26T05:21:45;0.20;99.90
21627;DHT22;10975;47.872;12.972;2024-02-26T05:24:14;0.20;99.90
21627;DHT22;10975;47.872;12.972;2024-02-26T05:26:42;0.20;99.90
21627;DHT22;10975;47.872;12.972;2024-02-26T05:29:09;0.20;99.90
21627;DHT22;10975;47.872;12.972;2024-02-26T05:31:36;0.30;99.90
21627;DHT22;10975;47.872;12.972;2024-02-26T05:34:03;0.30;99.90
21627;DHT22;10975;47.872;12.972;2024-02-26T05:36:30;0.40;99.90
21627;DHT22;10975;47.872;12.972;2024-02-26T05:39:00;0.40;99.90
21627;DHT22;10975;47.872;12.972;2024-02-26T05:41:27;0.40;99.90
21627;DHT22;10975;47.872;12.972;2024-02-26T05:43:54;0.40;99.90
21627;DHT22;10975;47.872;12.972;2024-02-26T05:46:22;0.40;99.90
21627;DHT22;10975;47.872;12.972;2024-02-26T05:48:52;0.40;99.90
21627;DHT22;10975;47.872;12.972;2024-02-26T05:51:20;0.50;99.90
21627;DHT22;10975;47.872;12.972;2024-02-26T05:53:46;0.50;99.90
21627;DHT22;10975;47.872;12.972;2024-02-26T05:56:14;0.60;99.90
21627;DHT22;10975;47.872;12.972;2024-02-26T05:58:41;0.70;99.90
21627;DHT22;10975;47.872;12.972;2024-02-26T06:01:08;0.70;99.90
21627;DHT22;10975;47.872;12.972;2024-02-26T06:03:34;0.80;99.90
21627;DHT22;10975;47.872;12.972;2024-02-26T06:06:01;0.80;99.90
21627;DHT22;10975;47.872;12.972;2024-02-26T06:08:28;0.80;99.90
21627;DHT22;10975;47.872;12.972;2024-02-26T06:10:55;0.90;99.90
21627;DHT22;10975;47.872;12.972;2024-02-26T06:13:22;0.90;99.90
21627;DHT22;10975;47.872;12.972;2024-02-26T06:15:49;0.90;99.90
21627;DHT22;10975;47.872;12.972;2024-02-26T06:18:18;1.00;99.90
21627;DHT22;10975;47.872;12.972;2024-02-26T06:20:45;1.00;99.90
21627;DHT22;10975;47.872;12.972;2024-02-26T06:23:13;1.10;99.90
21627;DHT22;10975;47.872;12.972;2024-02-26T06:25:40;1.10;99.90
21627;DHT22;10975;47.872;12.972;2024-02-26T06:28:09;1.10;99.90
21627;DHT22;10975;47.872;12.972;2024-02-26T06:30:35;1.10;99.90
21627;DHT22;10975;47.872;12.972;2024-02-26T06:33:02;1.20;99.90
21627;DHT22;10975;47.872;12.972;2024-02-26T06:35:29;1.20;99.90
21627;DHT22;10975;47.872;12.972;2024-02-26T06:37:56;1.30;99.90
21627;DHT22;10975;47.872;12.972;2024-02-26T06:40:23;1.40;99.90
21627;DHT22;10975;47.872;12.972;2024-02-26T06:42:50;1.40;99.90
21627;DHT22;10975;47.872;12.972;2024-02-26T06:45:17;1.50;99.90
21627;DHT22;10975;47.872;12.972;2024-02-26T06:47:46;1.50;99.90
21627;DHT22;10975;47.872;12.972;2024-02-26T06:50:13;1.50;99.90
21627;DHT22;10975;47.872;12.972;2024-02-26T06:52:40;1.60;99.90
21627;DHT22;10975;47.872;12.972;2024-02-26T06:55:07;1.70;99.90
21627;DHT22;10975;47.872;12.972;2024-02-26T06:57:35;1.70;99.90
21627;DHT22;10975;47.872;12.972;2024-02-26T07:00:03;1.80;99.90
21627;DHT22;10975;47.872;12.972;2024-02-26T07:02:31;1.90;99.90
21627;DHT22;10975;47.872;12.972;2024-02-26T07:04:58;2.00;99.90
21627;DHT22;10975;47.872;12.972;2024-02-26T07:07:25;2.10;99.90
21627;DHT22;10975;47.872;12.972;2024-02-26T07:09:52;2.20;99.90
21627;DHT22;10975;47.872;12.972;2024-02-26T07:12:19;2.30;99.90
21627;DHT22;10975;47.872;12.972;2024-02-26T07:14:48;2.40;99.90
21627;DHT22;10975;47.872;12.972;2024-02-26T07:17:16;2.50;99.90
21627;DHT22;10975;47.872;12.972;2024-02-26T07:19:43;2.60;99.90
21627;DHT22;10975;47.872;12.972;2024-02-26T07:22:10;2.70;99.90
21627;DHT22;10975;47.872;12.972;2024-02-26T07:24:37;2.80;99.90
21627;DHT22;10975;47.872;12.972;2024-02-26T07:27:03;2.80;99.90
21627;DHT22;10975;47.872;12.972;2024-02-26T07:29:31;2.90;99.90
21627;DHT22;10975;47.872;12.972;2024-02-26T07:31:58;3.00;99.90
21627;DHT22;10975;47.872;12.972;2024-02-26T07:34:25;3.00;99.90
21627;DHT22;10975;47.872;12.972;2024-02-26T07:36:56;3.10;99.90
21627;DHT22;10975;47.872;12.972;2024-02-26T07:39:23;3.10;99.90
21627;DHT22;10975;47.872;12.972;2024-02-26T07:41:50;3.20;99.90
21627;DHT22;10975;47.872;12.972;2024-02-26T07:44:18;3.30;99.90
21627;DHT22;10975;47.872;12.972;2024-02-26T07:46:46;3.30;99.90
21627;DHT22;10975;47.872;12.972;2024-02-26T07:49:13;3.40;99.90
21627;DHT22;10975;47.872;12.972;2024-02-26T07:51:40;3.40;99.90
21627;DHT22;10975;47.872;12.972;2024-02-26T07:54:07;3.50;99.90
21627;DHT22;10975;47.872;12.972;2024-02-26T07:56:34;3.60;99.90
21627;DHT22;10975;47.872;12.972;2024-02-26T07:59:01;3.60;99.90
21627;DHT22;10975;47.872;12.972;2024-02-26T08:01:28;3.70;99.90
21627;DHT22;10975;47.872;12.972;2024-02-26T08:03:55;3.80;99.90
21627;DHT22;10975;47.872;12.972;2024-02-26T08:06:23;3.90;99.90
21627;DHT22;10975;47.872;12.972;2024-02-26T08:08:50;4.00;99.90
21627;DHT22;10975;47.872;12.972;2024-02-26T08:11:17;4.10;99.90
21627;DHT22;10975;47.872;12.972;2024-02-26T08:13:44;4.20;99.90
21627;DHT22;10975;47.872;12.972;2024-02-26T08:16:10;4.30;99.90
21627;DHT22;10975;47.872;12.972;2024-02-26T08:18:38;4.40;99.90
21627;DHT22;10975;47.872;12.972;2024-02-26T08:21:06;4.60;99.90
21627;DHT22;10975;47.872;12.972;2024-02-26T08:23:32;4.70;99.90
21627;DHT22;10975;47.872;12.972;2024-02-26T08:25:59;4.80;99.90
21627;DHT22;10975;47.872;12.972;2024-02-26T08:28:26;5.00;99.90
21627;DHT22;10975;47.872;12.972;2024-02-26T08:30:53;5.10;99.90
21627;DHT22;10975;47.872;12.972;2024-02-26T08:33:20;5.20;99.90
21627;DHT22;10975;47.872;12.972;2024-02-26T08:35:47;5.30;99.90
21627;DHT22;10975;47.872;12.972;2024-02-26T08:38:14;5.30;99.90
21627;DHT22;10975;47.872;12.972;2024-02-26T08:40:41;5.40;99.90
21627;DHT22;10975;47.872;12.972;2024-02-26T08:43:08;5.50;99.90
21627;DHT22;10975;47.872;12.972;2024-02-26T08:45:36;5.70;99.90
21627;DHT22;10975;47.872;12.972;2024-02-26T08:48:04;5.80;99.90
21627;DHT22;10975;47.872;12.972;2024-02-26T08:50:31;5.90;99.90
21627;DHT22;10975;47.872;12.972;2024-02-26T08:52:58;6.00;99.90
21627;DHT22;10975;47.872;12.972;2024-02-26T08:55:25;6.10;99.90
21627;DHT22;10975;47.872;12.972;2024-02-26T08:57:52;6.10;99.90
21627;DHT22;10975;47.872;12.972;2024-02-26T09:00:19;6.10;99.90
21627;DHT22;10975;47.872;12.972;2024-02-26T09:02:48;6.10;99.90
21627;DHT22;10975;47.872;12.972;2024-02-26T09:05:16;6.20;99.90
21627;DHT22;10975;47.872;12.972;2024-02-26T09:07:44;6.20;99.90
21627;DHT22;10975;47.872;12.972;2024-02-26T09:10:10;6.20;99.90
21627;DHT22;10975;47.872;12.972;2024-02-26T09:12:38;6.20;99.90
21627;DHT22;10975;47.872;12.972;2024-02-26T09:15:07;6.30;99.90
21627;DHT22;10975;47.872;12.972;2024-02-26T09:17:34;6.40;99.90
21627;DHT22;10975;47.872;12.972;2024-02-26T09:20:02;6.60;99.90
21627;DHT22;10975;47.872;12.972;2024-02-26T09:22:29;6.70;99.90
21627;DHT22;10975;47.872;12.972;2024-02-26T09:24:56;6.90;99.90
21627;DHT22;10975;47.872;12.972;2024-02-26T09:27:23;7.10;99.90
21627;DHT22;10975;47.872;12.972;2024-02-26T09:29:50;7.30;99.90
21627;DHT22;10975;47.872;12.972;2024-02-26T09:32:17;7.40;99.90
21627;DHT22;10975;47.872;12.972;2024-02-26T09:34:44;7.50;99.90
21627;DHT22;10975;47.872;12.972;2024-02-26T09:37:11;7.60;99.90
21627;DHT22;10975;47.872;12.972;2024-02-26T09:39:47;7.60;99.90
21627;DHT22;10975;47.872;12.972;2024-02-26T09:42:18;7.70;99.90
21627;DHT22;10975;47.872;12.972;2024-02-26T09:44:46;7.80;99.90
21627;DHT22;10975;47.872;12.972;2024-02-26T09:47:14;7.90;99.90
21627;DHT22;10975;47.872;12.972;2024-02-26T09:49:43;7.90;99.90
21627;DHT22;10975;47.872;12.972;2024-02-26T09:52:11;8.00;99.90
21627;DHT22;10975;47.872;12.972;2024-02-26T09:54:39;8.10;99.90
21627;DHT22;10975;47.872;12.972;2024-02-26T09:57:09;8.20;99.90
21627;DHT22;10975;47.872;12.972;2024-02-26T09:59:42;8.30;99.90
21627;DHT22;10975;47.872;12.972;2024-02-26T10:02:13;8.40;99.90
21627;DHT22;10975;47.872;12.972;2024-02-26T10:04:42;8.40;99.90
21627;DHT22;10975;47.872;12.972;2024-02-26T10:07:14;8.50;99.90
21627;DHT22;10975;47.872;12.972;2024-02-26T10:09:42;8.50;99.90
21627;DHT22;10975;47.872;12.972;2024-02-26T10:12:11;8.60;99.90
21627;DHT22;10975;47.872;12.972;2024-02-26T10:14:39;8.70;99.90
21627;DHT22;10975;47.872;12.972;2024-02-26T10:17:09;8.70;99.90
21627;DHT22;10975;47.872;12.972;2024-02-26T10:19:36;8.70;99.90
21627;DHT22;10975;47.872;12.972;2024-02-26T10:22:05;8.70;99.90
21627;DHT22;10975;47.872;12.972;2024-02-26T10:24:32;8.80;99.90
21627;DHT22;10975;47.872;12.972;2024-02-26T10:26:59;8.90;99.90
21627;DHT22;10975;47.872;12.972;2024-02-26T10:29:26;8.90;99.90
21627;DHT22;10975;47.872;12.972;2024-02-26T10:31:54;9.00;99.90
21627;DHT22;10975;47.872;12.972;2024-02-26T10:34:20;9.10;99.90
21627;DHT22;10975;47.872;12.972;2024-02-26T10:36:48;9.10;99.90
21627;DHT22;10975;47.872;12.972;2024-02-26T10:39:20;9.10;99.90
21627;DHT22;10975;47.872;12.972;2024-02-26T10:41:48;9.20;99.90
21627;DHT22;10975;47.872;12.972;2024-02-26T10:44:15;9.20;99.90
21627;DHT22;10975;47.872;12.972;2024-02-26T10:46:47;9.30;99.90
21627;DHT22;10975;47.872;12.972;2024-02-26T10:49:16;9.30;99.90
21627;DHT22;10975;47.872;12.972;2024-02-26T10:51:54;9.30;99.90
21627;DHT22;10975;47.872;12.972;2024-02-26T10:54:23;9.40;99.90
21627;DHT22;10975;47.872;12.972;2024-02-26T10:56:51;9.50;99.90
21627;DHT22;10975;47.872;12.972;2024-02-26T10:59:18;9.60;99.90
21627;DHT22;10975;47.872;12.972;2024-02-26T11:01:48;9.60;99.90
21627;DHT22;10975;47.872;12.972;2024-02-26T11:04:16;9.70;99.90
21627;DHT22;10975;47.872;12.972;2024-02-26T11:06:46;9.70;99.90
21627;DHT22;10975;47.872;12.972;2024-02-26T11:09:16;9.80;99.90
21627;DHT22;10975;47.872;12.972;2024-02-26T11:11:44;9.90;99.90
21627;DHT22;10975;47.872;12.972;2024-02-26T11:14:11;9.90;99.90
21627;DHT22;10975;47.872;12.972;2024-02-26T11:16:40;10.00;99.90
21627;DHT22;10975;47.872;12.972;2024-02-26T11:19:09;10.00;99.90
21627;DHT22;10975;47.872;12.972;2024-02-26T11:21:37;10.00;99.90
21627;DHT22;10975;47.872;12.972;2024-02-26T11:24:14;10.10;99.90
21627;DHT22;10975;47.872;12.972;2024-02-26T11:26:54;10.10;99.90
21627;DHT22;10975;47.872;12.972;2024-02-26T11:29:51;10.10;99.90
21627;DHT22;10975;47.872;12.972;2024-02-26T11:32:19;10.00;99.90
21627;DHT22;10975;47.872;12.972;2024-02-26T11:34:46;10.10;99.90
21627;DHT22;10975;47.872;12.972;2024-02-26T11:37:17;10.10;99.90
21627;DHT22;10975;47.872;12.972;2024-02-26T11:39:45;10.10;99.90
21627;DHT22;10975;47.872;12.972;2024-02-26T11:42:15;10.10;99.90
21627;DHT22;10975;47.872;12.972;2024-02-26T11:44:43;10.10;99.90
21627;DHT22;10975;47.872;12.972;2024-02-26T11:49:37;10.20;99.90
21627;DHT22;10975;47.872;12.972;2024-02-26T11:52:08;10.40;99.90
21627;DHT22;10975;47.872;12.972;2024-02-26T11:54:56;10.70;99.90
21627;DHT22;10975;47.872;12.972;2024-02-26T11:57:27;11.00;99.90
21627;DHT22;10975;47.872;12.972;2024-02-26T11:59:55;11.20;99.90
21627;DHT22;10975;47.872;12.972;2024-02-26T12:02:51;11.30;99.90
21627;DHT22;10975;47.872;12.972;2024-02-26T12:05:25;11.30;99.90
21627;DHT22;10975;47.872;12.972;2024-02-26T12:07:55;11.30;99.90
21627;DHT22;10975;47.872;12.972;2024-02-26T12:10:26;11.30;99.90
21627;DHT22;10975;47.872;12.972;2024-02-26T12:12:54;11.20;99.90
21627;DHT22;10975;47.872;12.972;2024-02-26T12:15:23;11.10;99.90
21627;DHT22;10975;47.872;12.972;2024-02-26T12:17:50;11.00;99.90
21627;DHT22;10975;47.872;12.972;2024-02-26T12:20:18;11.00;99.90
21627;DHT22;10975;47.872;12.972;2024-02-26T12:22:46;11.00;99.90
21627;DHT22;10975;47.872;12.972;2024-02-26T12:25:16;11.00;99.90
21627;DHT22;10975;47.872;12.972;2024-02-26T12:27:43;10.90;99.90
21627;DHT22;10975;47.872;12.972;2024-02-26T12:30:10;10.90;99.90
21627;DHT22;10975;47.872;12.972;2024-02-26T12:32:37;10.90;99.90
21627;DHT22;10975;47.872;12.972;2024-02-26T12:35:05;11.00;99.90
21627;DHT22;10975;47.872;12.972;2024-02-26T12:37:32;11.00;99.90
21627;DHT22;10975;47.872;12.972;2024-02-26T12:39:59;11.00;99.90
21627;DHT22;10975;47.872;12.972;2024-02-26T12:42:26;11.00;99.90
21627;DHT22;10975;47.872;12.972;2024-02-26T12:44:54;11.00;99.90
21627;DHT22;10975;47.872;12.972;2024-02-26T12:47:20;11.00;99.90
21627;DHT22;10975;47.872;12.972;2024-02-26T12:49:48;11.00;99.90
21627;DHT22;10975;47.872;12.972;2024-02-26T12:52:16;11.10;99.90
21627;DHT22;10975;47.872;12.972;2024-02-26T12:54:44;11.10;99.90
21627;DHT22;10975;47.872;12.972;2024-02-26T12:57:12;11.20;99.90
21627;DHT22;10975;47.872;12.972;2024-02-26T12:59:39;11.30;99.90
21627;DHT22;10975;47.872;12.972;2024-02-26T13:02:06;11.30;99.90
21627;DHT22;10975;47.872;12.972;2024-02-26T13:04:34;11.40;99.90
21627;DHT22;10975;47.872;12.972;2024-02-26T13:07:14;11.40;99.90
21627;DHT22;10975;47.872;12.972;2024-02-26T13:09:41;11.40;99.90
21627;DHT22;10975;47.872;12.972;2024-02-26T13:12:09;11.40;99.90
21627;DHT22;10975;47.872;12.972;2024-02-26T13:14:36;11.40;99.90
21627;DHT22;10975;47.872;12.972;2024-02-26T13:17:03;11.40;99.90
21627;DHT22;10975;47.872;12.972;2024-02-26T13:19:30;11.50;99.90
21627;DHT22;10975;47.872;12.972;2024-02-26T13:22:04;11.40;99.90
21627;DHT22;10975;47.872;12.972;2024-02-26T13:24:33;11.50;99.90
21627;DHT22;10975;47.872;12.972;2024-02-26T13:27:00;11.50;99.90
21627;DHT22;10975;47.872;12.972;2024-02-26T13:29:27;11.40;99.90
21627;DHT22;10975;47.872;12.972;2024-02-26T13:31:58;11.40;99.90
21627;DHT22;10975;47.872;12.972;2024-02-26T13:34:29;11.50;99.90
21627;DHT22;10975;47.872;12.972;2024-02-26T13:36:57;11.50;99.90
21627;DHT22;10975;47.872;12.972;2024-02-26T13:39:25;11.50;99.90
21627;DHT22;10975;47.872;12.972;2024-02-26T13:41:53;11.60;99.90
21627;DHT22;10975;47.872;12.972;2024-02-26T13:44:21;11.70;99.90
21627;DHT22;10975;47.872;12.972;2024-02-26T13:46:48;11.70;99.90
21627;DHT22;10975;47.872;12.972;2024-02-26T13:49:16;11.80;99.90
21627;DHT22;10975;47.872;12.972;2024-02-26T13:51:43;11.80;99.90
21627;DHT22;10975;47.872;12.972;2024-02-26T13:54:10;11.90;99.90
21627;DHT22;10975;47.872;12.972;2024-02-26T13:56:37;11.90;99.90
21627;DHT22;10975;47.872;12.972;2024-02-26T13:59:04;11.90;99.90
21627;DHT22;10975;47.872;12.972;2024-02-26T14:01:31;12.00;99.90
21627;DHT22;10975;47.872;12.972;2024-02-26T14:04:00;12.10;99.90
21627;DHT22;10975;47.872;12.972;2024-02-26T14:06:29;12.00;99.90
21627;DHT22;10975;47.872;12.972;2024-02-26T14:08:57;12.10;99.90
21627;DHT22;10975;47.872;12.972;2024-02-26T14:11:24;12.10;99.90
21627;DHT22;10975;47.872;12.972;2024-02-26T14:13:52;12.20;99.90
21627;DHT22;10975;47.872;12.972;2024-02-26T14:16:19;12.30;99.90
21627;DHT22;10975;47.872;12.972;2024-02-26T14:18:47;12.30;99.90
21627;DHT22;10975;47.872;12.972;2024-02-26T14:21:14;12.20;99.90
21627;DHT22;10975;47.872;12.972;2024-02-26T14:23:41;12.20;99.90
21627;DHT22;10975;47.872;12.972;2024-02-26T14:26:09;12.20;99.90
21627;DHT22;10975;47.872;12.972;2024-02-26T14:28:36;12.20;99.90
21627;DHT22;10975;47.872;12.972;2024-02-26T14:31:05;12.10;99.90
21627;DHT22;10975;47.872;12.972;2024-02-26T14:33:32;12.10;99.90
21627;DHT22;10975;47.872;12.972;2024-02-26T14:35:59;12.10;99.90
21627;DHT22;10975;47.872;12.972;2024-02-26T14:38:26;12.10;99.90
21627;DHT22;10975;47.872;12.972;2024-02-26T14:40:53;12.10;99.90
21627;DHT22;10975;47.872;12.972;2024-02-26T14:43:20;12.00;99.90
21627;DHT22;10975;47.872;12.972;2024-02-26T14:45:46;12.00;99.90
21627;DHT22;10975;47.872;12.972;2024-02-26T14:48:13;12.00;99.90
21627;DHT22;10975;47.872;12.972;2024-02-26T14:50:40;11.90;99.90
21627;DHT22;10975;47.872;12.972;2024-02-26T14:53:07;11.90;99.90
21627;DHT22;10975;47.872;12.972;2024-02-26T14:55:34;11.80;99.90
21627;DHT22;10975;47.872;12.972;2024-02-26T14:58:03;11.80;99.90
21627;DHT22;10975;47.872;12.972;2024-02-26T15:00:30;11.80;99.90
21627;DHT22;10975;47.872;12.972;2024-02-26T15:03:00;11.80;99.90
21627;DHT22;10975;47.872;12.972;2024-02-26T15:05:27;11.70;99.90
21627;DHT22;10975;47.872;12.972;2024-02-26T15:07:54;11.70;99.90
21627;DHT22;10975;47.872;12.972;2024-02-26T15:10:21;11.60;99.90
21627;DHT22;10975;47.872;12.972;2024-02-26T15:12:48;11.50;99.90
21627;DHT22;10975;47.872;12.972;2024-02-26T15:15:15;11.50;99.90
21627;DHT22;10975;47.872;12.972;2024-02-26T15:17:42;11.40;99.90
21627;DHT22;10975;47.872;12.972;2024-02-26T15:20:09;11.40;99.90
21627;DHT22;10975;47.872;12.972;2024-02-26T15:22:37;11.30;99.90
21627;DHT22;10975;47.872;12.972;2024-02-26T15:25:04;11.20;99.90
21627;DHT22;10975;47.872;12.972;2024-02-26T15:27:31;11.10;99.90
21627;DHT22;10975;47.872;12.972;2024-02-26T15:29:58;11.10;99.90
21627;DHT22;10975;47.872;12.972;2024-02-26T15:32:27;11.00;99.90